Time;durP1;ratioP1;P1;durP2;ratioP2;P2;SDS_P1;SDS_P2;PMS_P1;PMS_P2;Temp;Humidity;BMP_temperature;BMP_pressure;BME280_temperature;BME280_humidity;BME280_pressure;Samples;Min_cycle;Max_cycle;Signal;HPM_P1;HPM_P2
2021/04/06 00:00:42;;;;;;;2.72;1.77;;;8.10;99.90;;;;;;5032252;28;20076;-84
2021/04/06 00:03:13;;;;;;;3.03;1.85;;;7.90;99.90;;;;;;5034472;28;20024;-83
2021/04/06 00:05:40;;;;;;;3.58;1.80;;;7.90;99.90;;;;;;5029195;28;20382;-83
2021/04/06 00:08:07;;;;;;;2.85;1.73;;;8.00;99.90;;;;;;5014235;28;20440;-83
2021/04/06 00:10:39;;;;;;;4.50;1.85;;;7.80;99.90;;;;;;5014382;28;20033;-83
2021/04/06 00:13:05;;;;;;;2.67;2.00;;;7.80;99.90;;;;;;5014608;28;20113;-84
2021/04/06 00:15:32;;;;;;;3.85;2.08;;;7.80;99.90;;;;;;5024847;28;20065;-83
2021/04/06 00:18:01;;;;;;;2.50;1.70;;;7.50;99.90;;;;;;5033936;28;20013;-84
2021/04/06 00:20:30;;;;;;;2.00;1.80;;;7.70;99.90;;;;;;5032547;28;20025;-83
2021/04/06 00:22:57;;;;;;;1.73;1.63;;;7.30;99.90;;;;;;5033819;28;20469;-83
2021/04/06 00:25:29;;;;;;;2.35;1.75;;;7.20;99.90;;;;;;5033596;28;20029;-83
2021/04/06 00:27:56;;;;;;;2.55;1.60;;;7.20;99.90;;;;;;5032672;28;20443;-83
2021/04/06 00:30:30;;;;;;;2.03;1.63;;;7.30;99.90;;;;;;5031908;28;20036;-83
2021/04/06 00:33:05;;;;;;;1.92;1.45;;;7.20;99.90;;;;;;5032530;28;20075;-83
2021/04/06 00:35:33;;;;;;;1.88;1.38;;;7.10;99.90;;;;;;5032508;28;20106;-83
2021/04/06 00:38:02;;;;;;;3.25;1.30;;;7.00;99.90;;;;;;5032166;28;20140;-83
2021/04/06 00:40:31;;;;;;;2.00;1.33;;;6.80;99.90;;;;;;5033579;28;20100;-83
2021/04/06 00:43:05;;;;;;;1.50;1.27;;;7.20;99.90;;;;;;5032468;28;20021;-84
2021/04/06 00:45:35;;;;;;;1.48;1.30;;;6.90;99.90;;;;;;5032203;28;20036;-83
2021/04/06 00:48:21;;;;;;;4.82;1.20;;;7.20;99.90;;;;;;5032283;28;20397;-83
2021/04/06 00:51:04;;;;;;;1.45;1.08;;;6.90;99.90;;;;;;5032739;28;20038;-83
2021/04/06 00:53:48;;;;;;;2.17;1.13;;;7.40;99.90;;;;;;5033368;28;20026;-83
2021/04/06 00:56:16;;;;;;;3.10;1.20;;;7.10;99.90;;;;;;5033262;28;20405;-83
2021/04/06 00:58:43;;;;;;;1.10;1.00;;;7.00;99.90;;;;;;5032721;28;20025;-83
2021/04/06 01:01:10;;;;;;;2.75;1.20;;;7.10;99.90;;;;;;5032877;28;20048;-83
2021/04/06 01:03:39;;;;;;;1.67;1.00;;;7.10;99.90;;;;;;5033149;28;20018;-83
2021/04/06 01:06:07;;;;;;;2.45;1.30;;;7.00;99.90;;;;;;5033026;28;20037;-83
2021/04/06 01:08:36;;;;;;;3.45;1.10;;;7.00;99.90;;;;;;5033081;28;20048;-83
2021/04/06 01:11:02;;;;;;;3.20;1.42;;;7.20;99.90;;;;;;5033245;28;20064;-83
2021/04/06 01:13:28;;;;;;;2.05;1.20;;;6.80;99.90;;;;;;5032559;28;20033;-83
2021/04/06 01:15:55;;;;;;;2.70;1.35;;;6.90;99.90;;;;;;5032388;28;20038;-83
2021/04/06 01:18:21;;;;;;;2.00;1.30;;;6.40;99.90;;;;;;5031897;28;20400;-83
2021/04/06 01:20:47;;;;;;;2.75;1.40;;;6.60;99.90;;;;;;5032770;28;20037;-83
2021/04/06 01:23:18;;;;;;;2.22;1.20;;;6.50;99.90;;;;;;5033097;28;20021;-83
2021/04/06 01:25:45;;;;;;;2.47;1.45;;;6.40;99.90;;;;;;5032813;28;20030;-83
2021/04/06 01:28:12;;;;;;;3.78;1.33;;;7.00;99.90;;;;;;5031825;28;20025;-83
2021/04/06 01:30:45;;;;;;;2.35;1.40;;;6.20;99.90;;;;;;5032444;28;20053;-83
2021/04/06 01:33:17;;;;;;;3.00;1.30;;;6.20;99.90;;;;;;5018914;28;20397;-84
2021/04/06 01:35:46;;;;;;;3.13;1.50;;;6.40;99.90;;;;;;5012917;28;20398;-83
2021/04/06 01:38:14;;;;;;;3.78;1.65;;;6.50;99.90;;;;;;5018241;28;20037;-83
2021/04/06 01:40:44;;;;;;;2.60;1.65;;;6.40;99.90;;;;;;5032870;28;20033;-84
2021/04/06 01:43:12;;;;;;;4.13;1.73;;;6.20;99.90;;;;;;5032907;28;20114;-83
2021/04/06 01:45:45;;;;;;;4.57;1.80;;;6.20;99.90;;;;;;5031356;28;20079;-83
2021/04/06 01:48:15;;;;;;;4.25;2.10;;;6.30;99.90;;;;;;5032900;28;20083;-83
2021/04/06 01:50:42;;;;;;;4.65;1.75;;;6.30;99.90;;;;;;5032357;28;20030;-83
2021/04/06 01:53:09;;;;;;;2.45;1.52;;;6.30;99.90;;;;;;5032762;28;20052;-83
2021/04/06 01:55:37;;;;;;;4.35;1.58;;;6.20;99.90;;;;;;5032387;28;20026;-83
2021/04/06 01:58:04;;;;;;;3.78;1.88;;;6.30;99.90;;;;;;5032863;28;20018;-83
2021/04/06 02:00:49;;;;;;;2.38;1.65;;;6.60;99.90;;;;;;5029630;28;20026;-83
2021/04/06 02:03:16;;;;;;;5.03;1.98;;;6.70;99.90;;;;;;5032339;28;20076;-83
2021/04/06 02:05:44;;;;;;;3.28;1.60;;;6.40;99.90;;;;;;5031422;28;20059;-83
2021/04/06 02:08:14;;;;;;;4.30;1.63;;;6.40;99.90;;;;;;5032507;28;20501;-83
2021/04/06 02:10:40;;;;;;;2.50;1.67;;;6.30;99.90;;;;;;5032751;28;20029;-83
2021/04/06 02:13:15;;;;;;;2.85;1.80;;;6.30;99.90;;;;;;5031841;28;20479;-83
2021/04/06 02:15:58;;;;;;;3.50;1.80;;;6.40;99.90;;;;;;5012811;28;20022;-83
2021/04/06 02:18:25;;;;;;;5.13;1.80;;;6.30;99.90;;;;;;5011312;28;20071;-83
2021/04/06 02:20:52;;;;;;;3.28;1.73;;;6.70;99.90;;;;;;5012764;28;20429;-83
2021/04/06 02:23:19;;;;;;;3.42;1.75;;;6.30;99.90;;;;;;5012881;28;20149;-83
2021/04/06 02:25:58;;;;;;;3.50;1.90;;;6.30;99.90;;;;;;5011495;28;20033;-83
2021/04/06 02:28:24;;;;;;;4.82;1.70;;;6.20;99.90;;;;;;5017305;28;20032;-83
2021/04/06 02:30:52;;;;;;;2.72;1.73;;;6.20;99.90;;;;;;5032393;28;20132;-83
2021/04/06 02:33:26;;;;;;;4.22;1.80;;;6.20;99.90;;;;;;5032184;28;20374;-83
2021/04/06 02:35:57;;;;;;;5.35;1.77;;;6.40;99.90;;;;;;5032396;28;20060;-83
2021/04/06 02:38:23;;;;;;;2.22;1.50;;;6.50;99.90;;;;;;5026882;28;20057;-84
2021/04/06 02:40:48;;;;;;;5.55;2.17;;;6.20;99.90;;;;;;5014894;28;20030;-83
2021/04/06 02:43:14;;;;;;;5.32;1.88;;;6.20;99.90;;;;;;5019429;28;20137;-83
2021/04/06 02:45:40;;;;;;;5.55;1.88;;;6.10;99.90;;;;;;5035972;28;20030;-83
2021/04/06 02:48:12;;;;;;;4.30;1.75;;;6.40;99.90;;;;;;5034258;28;20055;-83
2021/04/06 02:50:40;;;;;;;7.50;2.13;;;6.10;99.90;;;;;;5034270;28;20025;-83
2021/04/06 02:53:15;;;;;;;6.95;2.10;;;6.00;99.90;;;;;;5035537;28;20026;-83
2021/04/06 02:55:40;;;;;;;5.55;1.95;;;6.30;99.90;;;;;;5034154;28;20029;-83
2021/04/06 02:58:14;;;;;;;4.50;1.90;;;6.30;99.90;;;;;;5028948;28;20048;-83
2021/04/06 03:00:40;;;;;;;4.95;2.17;;;6.40;99.90;;;;;;5019714;28;20033;-83
2021/04/06 03:03:24;;;;;;;6.75;1.90;;;6.10;99.90;;;;;;5015669;28;20022;-83
2021/04/06 03:06:04;;;;;;;5.95;1.95;;;6.00;99.90;;;;;;5014522;28;20040;-83
2021/04/06 03:08:30;;;;;;;6.18;2.08;;;6.00;99.90;;;;;;5015922;28;20034;-83
2021/04/06 03:10:56;;;;;;;6.88;2.35;;;5.90;99.90;;;;;;5015616;28;20033;-83
2021/04/06 03:13:26;;;;;;;3.67;1.80;;;5.90;99.90;;;;;;5026154;28;20033;-83
2021/04/06 03:15:52;;;;;;;5.57;2.03;;;5.90;99.90;;;;;;5035202;28;20025;-83
2021/04/06 03:18:20;;;;;;;4.82;2.00;;;6.20;99.90;;;;;;5035583;28;20022;-83
2021/04/06 03:20:46;;;;;;;4.70;2.05;;;5.90;99.90;;;;;;5035151;28;20021;-83
2021/04/06 03:23:11;;;;;;;8.38;2.72;;;5.70;99.90;;;;;;5035498;28;20080;-83
2021/04/06 03:25:38;;;;;;;7.40;2.20;;;6.00;99.90;;;;;;5035225;28;20366;-83
2021/04/06 03:28:08;;;;;;;5.68;2.25;;;5.80;99.90;;;;;;5032171;28;20113;-83
2021/04/06 03:30:35;;;;;;;7.53;2.55;;;6.20;99.90;;;;;;5014974;28;20037;-83
2021/04/06 03:33:02;;;;;;;8.70;2.15;;;5.80;99.90;;;;;;5015050;28;20026;-83
2021/04/06 03:35:28;;;;;;;5.07;1.85;;;5.80;99.90;;;;;;5014140;28;20484;-83
2021/04/06 03:37:54;;;;;;;6.28;2.40;;;6.00;99.90;;;;;;5017821;28;20140;-83
2021/04/06 03:40:20;;;;;;;3.85;2.17;;;5.50;99.90;;;;;;5035168;28;20060;-83
2021/04/06 03:42:46;;;;;;;4.78;1.95;;;5.40;99.90;;;;;;5032187;28;20033;-83
2021/04/06 03:45:12;;;;;;;5.40;2.15;;;5.20;99.90;;;;;;5034525;28;20029;-83
2021/04/06 03:47:58;;;;;;;6.88;2.20;;;5.00;99.90;;;;;;5033166;28;20119;-83
2021/04/06 03:50:32;;;;;;;6.72;2.03;;;5.00;99.90;;;;;;5034311;28;20553;-83
2021/04/06 03:53:06;;;;;;;5.68;2.10;;;4.90;99.90;;;;;;5033610;28;20489;-83
2021/04/06 03:55:32;;;;;;;5.65;2.35;;;5.00;99.90;;;;;;5034605;28;20519;-83
2021/04/06 03:58:07;;;;;;;5.55;2.15;;;4.90;99.90;;;;;;5031982;28;20044;-83
2021/04/06 04:00:33;;;;;;;9.00;2.22;;;4.80;99.90;;;;;;5034121;28;20075;-83
2021/04/06 04:03:00;;;;;;;9.55;2.30;;;4.90;99.90;;;;;;5033516;28;20021;-84
2021/04/06 04:05:26;;;;;;;4.38;2.22;;;5.00;99.90;;;;;;5034669;28;20021;-83
2021/04/06 04:07:52;;;;;;;7.32;2.35;;;4.60;99.90;;;;;;5034211;28;20564;-83
2021/04/06 04:10:17;;;;;;;8.43;2.40;;;4.70;99.90;;;;;;5033832;28;20026;-83
2021/04/06 04:12:43;;;;;;;5.20;2.15;;;4.60;99.90;;;;;;5031580;28;20024;-83
2021/04/06 04:15:09;;;;;;;5.65;2.80;;;4.50;99.90;;;;;;5033909;28;20053;-83
2021/04/06 04:17:35;;;;;;;5.55;2.58;;;4.40;99.90;;;;;;5032663;28;20445;-83
2021/04/06 04:20:07;;;;;;;7.30;2.40;;;4.40;99.90;;;;;;5034134;28;20021;-83
2021/04/06 04:22:33;;;;;;;6.28;2.72;;;4.40;99.90;;;;;;5034124;28;20030;-83
2021/04/06 04:24:58;;;;;;;4.97;2.20;;;4.60;99.90;;;;;;5032471;28;20021;-83
2021/04/06 04:27:24;;;;;;;8.43;2.70;;;4.20;99.90;;;;;;5033974;28;20052;-83
2021/04/06 04:29:49;;;;;;;7.15;2.47;;;4.00;99.90;;;;;;5033683;28;20109;-83
2021/04/06 04:32:15;;;;;;;5.28;2.60;;;4.00;99.90;;;;;;5032875;28;20030;-83
2021/04/06 04:34:41;;;;;;;6.00;2.80;;;4.10;99.90;;;;;;5033836;28;20456;-83
2021/04/06 04:37:16;;;;;;;5.05;2.40;;;4.10;99.90;;;;;;5032334;28;20033;-83
2021/04/06 04:39:42;;;;;;;10.25;3.10;;;4.20;99.90;;;;;;5032949;28;20045;-83
2021/04/06 04:42:07;;;;;;;7.60;2.58;;;4.20;99.90;;;;;;5033616;28;20393;-83
2021/04/06 04:44:33;;;;;;;6.53;2.33;;;4.10;99.90;;;;;;5033245;28;20018;-83
2021/04/06 04:46:59;;;;;;;5.25;2.38;;;4.50;99.90;;;;;;5032573;28;20088;-83
2021/04/06 04:49:25;;;;;;;6.80;2.30;;;4.20;99.90;;;;;;5032256;28;20401;-83
2021/04/06 04:51:51;;;;;;;7.95;2.60;;;4.10;99.90;;;;;;5032334;28;20026;-83
2021/04/06 04:54:17;;;;;;;9.52;4.45;;;4.00;99.90;;;;;;5030444;28;20021;-83
2021/04/06 04:56:42;;;;;;;5.28;2.53;;;4.00;99.90;;;;;;5031849;28;20041;-83
2021/04/06 04:59:08;;;;;;;6.72;2.90;;;4.10;99.90;;;;;;5033057;28;20515;-83
2021/04/06 05:01:33;;;;;;;5.75;3.10;;;3.90;99.90;;;;;;5032740;28;20026;-83
2021/04/06 05:03:59;;;;;;;6.07;2.67;;;3.90;99.90;;;;;;5032002;28;20028;-83
2021/04/06 05:06:25;;;;;;;6.95;2.70;;;3.90;99.90;;;;;;5031926;28;20033;-83
2021/04/06 05:08:50;;;;;;;6.03;2.63;;;4.10;99.90;;;;;;5032115;28;20504;-83
2021/04/06 05:11:16;;;;;;;6.60;2.50;;;4.00;99.90;;;;;;5033037;28;20120;-83
2021/04/06 05:13:41;;;;;;;5.35;3.00;;;4.00;99.90;;;;;;5032845;28;20611;-83
2021/04/06 05:16:07;;;;;;;7.00;3.10;;;4.00;99.90;;;;;;5031748;28;20049;-83
2021/04/06 05:18:32;;;;;;;7.53;2.90;;;3.80;99.90;;;;;;5033239;28;20529;-83
2021/04/06 05:20:58;;;;;;;6.82;2.80;;;3.70;99.90;;;;;;5033076;28;20028;-83
2021/04/06 05:23:24;;;;;;;9.02;3.47;;;3.80;99.90;;;;;;5031364;28;20097;-83
2021/04/06 05:25:49;;;;;;;6.75;3.03;;;3.70;99.90;;;;;;5033268;28;20033;-83
2021/04/06 05:28:15;;;;;;;6.20;3.08;;;3.70;99.90;;;;;;5032868;28;20030;-83
2021/04/06 05:30:40;;;;;;;4.95;2.65;;;3.80;99.90;;;;;;5033026;28;20037;-83
2021/04/06 05:33:07;;;;;;;7.78;3.38;;;4.20;99.90;;;;;;5031936;28;20104;-83
2021/04/06 05:35:32;;;;;;;7.68;2.78;;;3.70;99.90;;;;;;5032809;28;20032;-82
2021/04/06 05:37:59;;;;;;;6.85;2.72;;;3.80;99.90;;;;;;5028748;28;20404;-83
2021/04/06 05:40:25;;;;;;;7.93;2.85;;;3.70;99.90;;;;;;5031806;28;20060;-83
2021/04/06 05:42:51;;;;;;;7.03;2.90;;;3.60;99.90;;;;;;5032813;28;20022;-83
2021/04/06 05:45:21;;;;;;;4.82;2.67;;;3.70;99.90;;;;;;5032644;28;20461;-83
2021/04/06 05:47:56;;;;;;;6.30;2.92;;;3.80;99.90;;;;;;5032536;28;20021;-83
2021/04/06 05:50:21;;;;;;;10.68;3.13;;;3.90;99.90;;;;;;5032650;28;20401;-83
2021/04/06 05:52:48;;;;;;;6.50;2.70;;;3.90;99.90;;;;;;5031196;28;20023;-83
2021/04/06 05:55:14;;;;;;;4.70;2.70;;;3.90;99.90;;;;;;5031909;28;20032;-83
2021/04/06 05:57:40;;;;;;;4.80;2.78;;;4.50;99.90;;;;;;5032364;28;20025;-83
2021/04/06 06:00:08;;;;;;;6.30;2.53;;;4.40;99.90;;;;;;5032693;28;20100;-83
2021/04/06 06:02:34;;;;;;;5.82;3.00;;;4.20;99.90;;;;;;5030781;28;20040;-83
2021/04/06 06:05:00;;;;;;;4.85;2.42;;;4.30;99.90;;;;;;5032662;28;20033;-83
2021/04/06 06:07:26;;;;;;;7.47;2.78;;;4.10;99.90;;;;;;5029912;28;20026;-82
2021/04/06 06:09:51;;;;;;;9.38;2.90;;;4.20;99.90;;;;;;5031996;28;20030;-83
2021/04/06 06:12:19;;;;;;;7.93;2.83;;;4.20;99.90;;;;;;5034079;28;20440;-82
2021/04/06 06:14:51;;;;;;;4.97;2.45;;;4.30;99.90;;;;;;5036278;28;20037;-82
2021/04/06 06:17:19;;;;;;;6.63;2.95;;;4.30;99.90;;;;;;5017934;28;20505;-82
2021/04/06 06:19:47;;;;;;;4.45;2.60;;;4.50;99.90;;;;;;5016430;28;20037;-83
2021/04/06 06:22:17;;;;;;;8.70;2.55;;;4.40;99.90;;;;;;5019620;28;20524;-83
2021/04/06 06:24:46;;;;;;;5.45;2.80;;;4.40;99.90;;;;;;5035952;28;20083;-83
2021/04/06 06:27:37;;;;;;;8.18;2.72;;;4.40;99.90;;;;;;5036295;28;20025;-83
2021/04/06 06:30:42;;;;;;;6.00;2.65;;;4.50;99.90;;;;;;5036072;28;20026;-84
2021/04/06 06:33:18;;;;;;;7.93;2.38;;;4.70;99.90;;;;;;5017176;28;20076;-83
2021/04/06 06:35:49;;;;;;;7.97;2.38;;;4.40;99.90;;;;;;5017213;28;20033;-83
2021/04/06 06:38:30;;;;;;;5.95;2.50;;;4.50;99.90;;;;;;5026326;28;20042;-83
2021/04/06 06:41:19;;;;;;;4.25;2.35;;;4.80;99.90;;;;;;5014205;28;20032;-83
2021/04/06 06:43:51;;;;;;;6.22;2.65;;;4.90;99.90;;;;;;5013910;28;20481;-83
2021/04/06 06:46:23;;;;;;;12.02;3.72;;;4.70;99.90;;;;;;5013923;28;20041;-83
2021/04/06 06:49:02;;;;;;;5.93;2.13;;;4.90;99.90;;;;;;5013513;28;20037;-83
2021/04/06 06:51:36;;;;;;;8.32;2.30;;;4.90;99.90;;;;;;5016221;28;20053;-83
2021/04/06 06:54:03;;;;;;;6.60;2.28;;;4.80;99.90;;;;;;5021308;28;20181;-83
2021/04/06 06:56:36;;;;;;;6.50;2.22;;;5.10;99.90;;;;;;5013426;28;20548;-83
2021/04/06 06:59:02;;;;;;;6.55;2.50;;;4.90;99.90;;;;;;5014220;28;21195;-82
2021/04/06 07:01:34;;;;;;;5.15;2.17;;;5.30;99.90;;;;;;5013732;28;20108;-83
2021/04/06 07:04:02;;;;;;;4.28;1.98;;;5.20;99.90;;;;;;5014827;28;20401;-83
2021/04/06 07:06:28;;;;;;;7.80;2.45;;;5.10;99.90;;;;;;5018068;28;20044;-83
2021/04/06 07:08:55;;;;;;;5.10;2.30;;;4.80;99.90;;;;;;5034145;28;20444;-83
2021/04/06 07:11:21;;;;;;;4.35;2.13;;;4.80;99.90;;;;;;5035396;28;20033;-82
2021/04/06 07:13:50;;;;;;;5.90;2.17;;;4.90;99.90;;;;;;5035911;28;20481;-83
2021/04/06 07:16:17;;;;;;;4.35;2.53;;;4.90;99.90;;;;;;5035402;28;20030;-84
2021/04/06 07:18:44;;;;;;;6.82;2.63;;;5.00;99.90;;;;;;5035080;28;20108;-83
2021/04/06 07:21:11;;;;;;;5.60;2.25;;;5.60;99.90;;;;;;5033406;28;20552;-83
2021/04/06 07:23:57;;;;;;;6.15;2.00;;;5.20;99.90;;;;;;5034026;28;20104;-83
2021/04/06 07:26:25;;;;;;;4.65;3.17;;;4.70;99.90;;;;;;5035138;28;20029;-83
2021/04/06 07:28:51;;;;;;;8.77;2.70;;;4.80;99.90;;;;;;5035079;28;20508;-83
2021/04/06 07:31:18;;;;;;;6.05;2.40;;;5.10;99.90;;;;;;5033627;28;20030;-83
2021/04/06 07:33:46;;;;;;;5.30;2.20;;;4.80;99.90;;;;;;5034021;28;20025;-84
2021/04/06 07:36:21;;;;;;;6.65;2.25;;;4.70;99.90;;;;;;5031449;28;20032;-83
2021/04/06 07:38:49;;;;;;;6.35;2.28;;;4.80;99.90;;;;;;5032961;28;20124;-83
2021/04/06 07:41:20;;;;;;;4.40;1.92;;;4.80;99.90;;;;;;5035148;28;20109;-83
2021/04/06 07:43:47;;;;;;;6.97;2.22;;;4.90;99.90;;;;;;5034779;28;20064;-83
2021/04/06 07:46:34;;;;;;;5.55;2.25;;;5.00;99.90;;;;;;5033102;28;20072;-83
2021/04/06 07:49:09;;;;;;;5.78;2.10;;;5.20;99.90;;;;;;5034665;28;20028;-83
2021/04/06 07:51:46;;;;;;;5.63;2.05;;;5.00;99.90;;;;;;5032583;28;20037;-83
2021/04/06 07:54:42;;;;;;;17.00;3.67;;;5.00;99.90;;;;;;5033232;28;20036;-83
2021/04/06 07:57:07;;;;;;;6.28;2.42;;;5.00;99.90;;;;;;5034272;28;20037;-83
2021/04/06 07:59:33;;;;;;;4.97;2.22;;;5.20;99.90;;;;;;5034165;28;20083;-83
2021/04/06 08:02:00;;;;;;;4.40;1.77;;;5.40;99.90;;;;;;5033050;28;20057;-83
2021/04/06 08:04:26;;;;;;;5.18;2.20;;;5.50;99.90;;;;;;5034566;28;20029;-83
2021/04/06 08:06:56;;;;;;;5.50;2.00;;;5.40;99.90;;;;;;5030658;28;20034;-82
2021/04/06 08:09:31;;;;;;;6.95;2.20;;;5.80;99.90;;;;;;5034170;28;20030;-82
2021/04/06 08:12:20;;;;;;;3.70;2.20;;;5.60;99.90;;;;;;5034234;28;20036;-83
2021/04/06 08:15:03;;;;;;;3.85;2.08;;;5.90;99.90;;;;;;5034045;28;20099;-83
2021/04/06 08:17:29;;;;;;;7.70;2.33;;;5.80;99.90;;;;;;5032930;28;20037;-83
2021/04/06 08:20:23;;;;;;;4.18;2.20;;;5.60;99.90;;;;;;5032232;28;20481;-82
2021/04/06 08:22:51;;;;;;;8.90;2.22;;;6.10;99.90;;;;;;5015200;28;20049;-83
2021/04/06 08:25:20;;;;;;;4.68;1.85;;;6.20;99.90;;;;;;5031844;28;20045;-83
2021/04/06 08:27:51;;;;;;;7.85;2.55;;;6.20;99.90;;;;;;5031964;28;20075;-84
2021/04/06 08:30:19;;;;;;;8.38;2.60;;;6.70;99.90;;;;;;5031828;28;20117;-83
2021/04/06 08:32:59;;;;;;;7.32;2.00;;;6.50;99.90;;;;;;5015135;28;20029;-83
2021/04/06 08:35:43;;;;;;;6.40;2.20;;;6.50;99.90;;;;;;5029301;28;20053;-83
2021/04/06 08:38:25;;;;;;;4.47;2.10;;;6.60;99.90;;;;;;5009642;28;20060;-83
2021/04/06 08:41:05;;;;;;;4.00;2.22;;;6.40;99.90;;;;;;5011764;28;20088;-83
2021/04/06 08:43:44;;;;;;;7.20;2.30;;;6.40;99.90;;;;;;5019968;28;20017;-82
2021/04/06 08:46:09;;;;;;;8.57;2.30;;;6.70;99.90;;;;;;5030767;28;20496;-82
2021/04/06 08:48:51;;;;;;;6.00;2.20;;;6.70;99.90;;;;;;5014837;28;20029;-82
2021/04/06 08:51:30;;;;;;;4.20;2.00;;;6.80;99.90;;;;;;5031084;28;20091;-82
2021/04/06 08:54:07;;;;;;;8.85;2.38;;;6.60;99.90;;;;;;5031703;28;20501;-82
2021/04/06 08:56:36;;;;;;;9.90;1.90;;;6.70;99.90;;;;;;5031625;28;20025;-82
2021/04/06 08:59:32;;;;;;;6.85;2.17;;;7.00;99.90;;;;;;5029839;28;20042;-82
2021/04/06 09:02:09;;;;;;;5.43;2.80;;;6.90;99.90;;;;;;5033416;28;20029;-82
2021/04/06 09:04:37;;;;;;;7.82;2.28;;;6.90;99.90;;;;;;5031873;28;20397;-82
2021/04/06 09:07:31;;;;;;;3.72;2.08;;;7.10;99.90;;;;;;5032201;28;20040;-82
2021/04/06 09:09:59;;;;;;;7.05;1.80;;;7.20;99.90;;;;;;5033261;28;20025;-82
2021/04/06 09:12:25;;;;;;;3.83;1.90;;;7.30;99.90;;;;;;5031448;28;20424;-81
2021/04/06 09:14:52;;;;;;;8.00;2.20;;;7.20;99.90;;;;;;5032756;28;20033;-82
2021/04/06 09:17:18;;;;;;;3.30;1.70;;;7.40;99.90;;;;;;5032654;28;20040;-82
2021/04/06 09:19:46;;;;;;;7.80;2.42;;;7.80;99.90;;;;;;5031207;28;20021;-83
2021/04/06 09:22:14;;;;;;;6.10;2.10;;;8.00;99.90;;;;;;5032970;28;20381;-84
2021/04/06 09:24:41;;;;;;;3.30;2.00;;;7.70;99.90;;;;;;5032015;28;20022;-83
2021/04/06 09:27:08;;;;;;;4.20;1.95;;;7.70;99.90;;;;;;5031736;28;20025;-92
2021/04/06 09:29:37;;;;;;;7.95;2.10;;;7.40;99.90;;;;;;5032959;28;20030;-89
2021/04/06 09:37:28;;;;;;;3.15;1.92;;;8.10;99.90;;;;;;5027134;28;20411;-86
2021/04/06 09:39:57;;;;;;;3.72;2.00;;;8.00;99.90;;;;;;5012711;28;20100;-87
2021/04/06 09:42:23;;;;;;;4.07;2.20;;;8.00;99.90;;;;;;5031823;28;20049;-84
2021/04/06 09:44:50;;;;;;;5.20;1.98;;;8.20;99.90;;;;;;5032969;28;20068;-83
2021/04/06 09:47:22;;;;;;;4.47;1.77;;;8.20;99.90;;;;;;5033583;28;20033;-83
2021/04/06 09:49:53;;;;;;;8.38;1.98;;;8.30;99.90;;;;;;5037095;28;20057;-83
2021/04/06 09:52:25;;;;;;;5.90;1.75;;;8.70;99.90;;;;;;5036677;28;20095;-83
2021/04/06 09:55:08;;;;;;;5.05;1.40;;;8.90;99.90;;;;;;5013052;28;20033;-87
2021/04/06 09:57:39;;;;;;;5.28;1.98;;;9.20;99.90;;;;;;5036703;28;20021;-88
2021/04/06 10:02:42;;;;;;;4.20;1.50;;;10.40;99.90;;;;;;4839494;22;20066;-89
2021/04/06 10:05:23;;;;;;;3.45;1.40;;;14.70;99.90;;;;;;5010127;28;20034;-88
2021/04/06 10:07:50;;;;;;;4.03;1.73;;;19.10;99.90;;;;;;5005965;28;20037;-88
2021/04/06 10:10:22;;;;;;;3.53;1.70;;;20.70;99.90;;;;;;5014520;28;20022;-88
2021/04/06 10:12:59;;;;;;;4.28;1.85;;;23.40;99.90;;;;;;4998750;28;20167;-88
2021/04/06 10:15:28;;;;;;;5.80;1.60;;;25.20;99.90;;;;;;4996797;28;20026;-88
2021/04/06 10:17:55;;;;;;;7.57;1.60;;;24.30;99.90;;;;;;5010244;28;20026;-89
2021/04/06 10:20:24;;;;;;;3.70;1.50;;;23.40;99.90;;;;;;4998561;28;20382;-88
2021/04/06 10:22:56;;;;;;;6.57;1.70;;;22.10;99.90;;;;;;5016212;28;20100;-88
2021/04/06 10:25:25;;;;;;;3.67;1.60;;;22.70;99.90;;;;;;5016647;28;20500;-89
2021/04/06 10:27:56;;;;;;;6.50;2.95;;;25.60;99.90;;;;;;4997034;28;20512;-86
2021/04/06 10:31:00;;;;;;;5.25;2.40;;;24.50;99.90;;;;;;4997187;28;20173;-90
2021/04/06 10:33:35;;;;;;;3.28;1.63;;;23.80;99.90;;;;;;4998927;28;20492;-90
2021/04/06 10:36:15;;;;;;;4.90;1.75;;;23.90;99.90;;;;;;4996716;28;20030;-89
2021/04/06 10:38:41;;;;;;;6.03;2.22;;;24.80;99.90;;;;;;4997598;28;20113;-85
2021/04/06 10:41:06;;;;;;;3.05;1.55;;;24.40;99.90;;;;;;4995982;28;20033;-84
2021/04/06 10:43:34;;;;;;;6.43;1.98;;;25.00;99.90;;;;;;5012499;28;20401;-84
2021/04/06 10:46:09;;;;;;;3.55;1.83;;;24.20;99.90;;;;;;4998129;28;20140;-83
2021/04/06 10:48:38;;;;;;;5.20;2.00;;;24.40;99.90;;;;;;4996830;28;20497;-84
2021/04/06 10:51:12;;;;;;;4.75;1.80;;;22.70;99.90;;;;;;5014067;28;20098;-84
2021/04/06 10:53:50;;;;;;;3.85;1.60;;;23.10;99.90;;;;;;5014248;28;20045;-83
2021/04/06 10:56:17;;;;;;;5.13;1.77;;;24.90;99.90;;;;;;5012512;28;20029;-85
2021/04/06 10:58:50;;;;;;;5.75;1.90;;;24.30;99.90;;;;;;4994190;28;20083;-84
2021/04/06 11:01:18;;;;;;;3.63;2.13;;;25.40;99.90;;;;;;4995733;28;20029;-84
2021/04/06 11:03:53;;;;;;;4.13;2.00;;;24.70;99.90;;;;;;4994607;28;20022;-85
2021/04/06 11:06:19;;;;;;;5.38;1.98;;;23.60;99.90;;;;;;5005944;28;20025;-84
2021/04/06 11:08:49;;;;;;;7.20;1.83;;;23.60;99.90;;;;;;5014216;28;20473;-85
2021/04/06 11:11:33;;;;;;;5.22;1.80;;;23.90;99.90;;;;;;5011729;28;20026;-85
2021/04/06 11:14:01;;;;;;;4.80;1.75;;;24.50;99.90;;;;;;5013288;28;20485;-85
2021/04/06 11:16:27;;;;;;;3.85;1.80;;;27.30;99.90;;;;;;5011528;28;20497;-84
2021/04/06 11:19:18;;;;;;;8.77;1.98;;;25.50;99.90;;;;;;4995530;28;20029;-84
2021/04/06 11:21:56;;;;;;;5.78;2.05;;;24.80;99.90;;;;;;5004941;28;20390;-85
2021/04/06 11:24:25;;;;;;;4.10;1.80;;;27.00;99.90;;;;;;4976908;28;20019;-85
2021/04/06 11:26:52;;;;;;;5.00;1.90;;;27.80;99.90;;;;;;4994500;28;20109;-84
2021/04/06 11:29:20;;;;;;;8.77;1.88;;;28.50;99.90;;;;;;5006557;28;20022;-87
2021/04/06 11:31:48;;;;;;;5.70;1.70;;;26.30;99.90;;;;;;5005984;28;20481;-87
2021/04/06 11:34:15;;;;;;;5.00;1.75;;;26.50;99.90;;;;;;5014249;28;20025;-87
2021/04/06 11:36:43;;;;;;;5.78;1.88;;;27.30;99.90;;;;;;5014741;28;20128;-85
2021/04/06 11:39:10;;;;;;;2.20;1.52;;;27.60;99.90;;;;;;5013992;28;20022;-87
2021/04/06 11:41:36;;;;;;;5.82;1.73;;;27.90;99.90;;;;;;5013744;28;20064;-90
2021/04/06 11:44:03;;;;;;;5.53;1.90;;;30.30;99.90;;;;;;4996729;28;20109;-86
2021/04/06 11:46:31;;;;;;;6.82;2.13;;;29.10;99.90;;;;;;4996236;28;20037;-88
2021/04/06 11:48:56;;;;;;;3.38;1.23;;;26.00;99.90;;;;;;5014401;28;20116;-86
2021/04/06 11:51:22;;;;;;;8.38;1.80;;;26.20;99.90;;;;;;5013750;28;20061;-86
2021/04/06 11:53:48;;;;;;;4.78;1.50;;;24.00;99.90;;;;;;5014337;28;20033;-86
2021/04/06 11:56:15;;;;;;;6.35;1.73;;;25.40;99.90;;;;;;5014031;28;20034;-88
2021/04/06 11:58:40;;;;;;;4.82;1.83;;;26.20;99.90;;;;;;4996475;28;20022;-91
2021/04/06 12:01:06;;;;;;;4.40;1.60;;;26.60;99.90;;;;;;4997002;28;20033;-87
2021/04/06 12:03:32;;;;;;;5.78;1.60;;;28.00;99.90;;;;;;5014217;28;20093;-88
2021/04/06 12:05:57;;;;;;;3.70;1.70;;;26.30;99.90;;;;;;5014611;28;20036;-88
2021/04/06 12:08:23;;;;;;;3.83;1.60;;;27.00;99.90;;;;;;4995640;28;20061;-88
2021/04/06 12:10:49;;;;;;;3.33;1.60;;;28.20;99.90;;;;;;4996629;28;20088;-88
2021/04/06 12:13:15;;;;;;;7.10;1.70;;;27.80;99.90;;;;;;4996187;28;20026;-87
2021/04/06 12:15:41;;;;;;;8.80;2.10;;;26.70;99.90;;;;;;4996285;28;20038;-88
2021/04/06 12:18:06;;;;;;;4.20;1.50;;;27.40;99.90;;;;;;5010997;28;20105;-87
2021/04/06 12:20:32;;;;;;;6.13;1.40;;;26.70;99.90;;;;;;5014199;28;20022;-88
2021/04/06 12:22:58;;;;;;;4.05;1.45;;;27.30;99.90;;;;;;5014200;28;20538;-87
2021/04/06 12:25:24;;;;;;;8.23;1.67;;;27.00;99.90;;;;;;4996430;28;20028;-88
2021/04/06 12:27:50;;;;;;;6.47;1.45;;;26.60;99.90;;;;;;4996162;28;20029;-88
2021/04/06 12:30:16;;;;;;;4.93;1.70;;;27.60;99.90;;;;;;4996015;28;20558;-87
2021/04/06 12:32:42;;;;;;;6.13;1.70;;;26.70;99.90;;;;;;5012958;28;20128;-88
2021/04/06 12:35:09;;;;;;;6.15;1.48;;;26.40;99.90;;;;;;5013436;28;20108;-88
2021/04/06 12:37:35;;;;;;;9.30;1.55;;;23.30;99.90;;;;;;5014102;28;20030;-88
2021/04/06 12:40:02;;;;;;;4.88;1.83;;;22.80;99.90;;;;;;5014052;28;20026;-88
2021/04/06 12:42:28;;;;;;;3.30;1.40;;;24.50;99.90;;;;;;5013312;28;20026;-88
2021/04/06 12:44:54;;;;;;;4.20;1.30;;;24.60;99.90;;;;;;5013737;28;20500;-87
2021/04/06 12:47:20;;;;;;;5.05;1.38;;;25.70;99.90;;;;;;4994555;28;20034;-88
2021/04/06 12:49:46;;;;;;;3.40;1.10;;;25.40;99.90;;;;;;5013421;28;20084;-88
2021/04/06 12:52:11;;;;;;;3.63;1.02;;;23.70;99.90;;;;;;4995426;28;20034;-87
2021/04/06 12:54:37;;;;;;;4.25;1.30;;;24.40;99.90;;;;;;5013354;28;20069;-88
2021/04/06 12:57:03;;;;;;;4.20;1.40;;;24.20;99.90;;;;;;4995443;28;20040;-87
2021/04/06 12:59:29;;;;;;;3.85;1.30;;;26.70;99.90;;;;;;4995567;28;20014;-87
2021/04/06 13:01:54;;;;;;;12.43;2.13;;;27.50;99.90;;;;;;4994311;28;20046;-88
2021/04/06 13:04:20;;;;;;;4.57;1.30;;;25.60;99.90;;;;;;5012700;28;20549;-88
2021/04/06 13:06:46;;;;;;;3.13;1.42;;;23.90;99.90;;;;;;4995245;28;20156;-87
2021/04/06 13:09:11;;;;;;;4.80;1.40;;;22.80;99.90;;;;;;5012816;28;20113;-87
2021/04/06 13:11:37;;;;;;;5.15;1.55;;;21.50;99.90;;;;;;5012903;28;20712;-87
2021/04/06 13:14:03;;;;;;;8.25;1.25;;;23.20;99.90;;;;;;4995383;28;20026;-88
2021/04/06 13:16:33;;;;;;;4.22;1.70;;;22.80;99.90;;;;;;4993762;28;20026;-88